Time;durP1;ratioP1;P1;durP2;ratioP2;P2;SDS_P1;SDS_P2;PMS_P1;PMS_P2;Temp;Humidity;BMP_temperature;BMP_pressure;BME280_temperature;BME280_humidity;BME280_pressure;Samples;Min_cycle;Max_cycle;Signal;HPM_P1;HPM_P2
2022/08/14 00:00:41;;;;;;;;;;;;;;;20.11;34.71;95380.34;5015934;28;20419;-72
2022/08/14 00:03:06;;;;;;;;;;;;;;;20.05;34.07;95381.31;5010233;28;19993;-72
2022/08/14 00:05:32;;;;;;;;;;;;;;;19.96;35.05;95375.50;5009540;28;19996;-72
2022/08/14 00:07:57;;;;;;;;;;;;;;;19.91;35.42;95378.91;5013210;28;20138;-72
2022/08/14 00:10:22;;;;;;;;;;;;;;;19.82;35.33;95377.66;5022289;28;20018;-72
2022/08/14 00:12:49;;;;;;;;;;;;;;;19.87;34.44;95376.91;5010286;28;20024;-72
2022/08/14 00:15:15;;;;;;;;;;;;;;;19.71;35.76;95371.25;5014594;28;20048;-73
2022/08/14 00:17:41;;;;;;;;;;;;;;;19.77;35.35;95372.16;5014943;28;20068;-72
2022/08/14 00:20:07;;;;;;;;;;;;;;;19.70;36.24;95364.22;5012002;28;20061;-73
2022/08/14 00:22:33;;;;;;;;;;;;;;;19.77;35.73;95362.19;5007267;28;20309;-73
2022/08/14 00:24:58;;;;;;;;;;;;;;;19.83;35.39;95363.94;5008761;28;20071;-73
2022/08/14 00:27:23;;;;;;;;;;;;;;;19.71;35.68;95355.03;4990110;28;20006;-73
2022/08/14 00:29:49;;;;;;;;;;;;;;;19.73;34.65;95355.63;5009211;28;19977;-72
2022/08/14 00:32:14;;;;;;;;;;;;;;;19.67;34.49;95343.94;5008218;28;19976;-73
2022/08/14 00:34:40;;;;;;;;;;;;;;;19.61;35.27;95346.78;5015052;28;20087;-73
2022/08/14 00:37:05;;;;;;;;;;;;;;;19.62;35.90;95343.84;5018264;28;19976;-73
2022/08/14 00:39:30;;;;;;;;;;;;;;;19.56;35.19;95334.84;5009473;28;20541;-73
2022/08/14 00:41:55;;;;;;;;;;;;;;;19.56;36.08;95332.13;5006549;28;20971;-73
2022/08/14 00:44:21;;;;;;;;;;;;;;;19.51;35.56;95325.81;5013489;28;20381;-73
2022/08/14 00:46:48;;;;;;;;;;;;;;;19.48;35.38;95324.44;5011429;28;20001;-73
2022/08/14 00:49:14;;;;;;;;;;;;;;;19.44;35.56;95315.16;5010690;28;19981;-73
2022/08/14 00:51:40;;;;;;;;;;;;;;;19.39;35.35;95320.47;5016526;28;20607;-73
2022/08/14 00:54:05;;;;;;;;;;;;;;;19.52;36.15;95324.75;5013638;28;20091;-73
2022/08/14 00:56:31;;;;;;;;;;;;;;;19.48;35.68;95327.13;5009987;28;19993;-73
2022/08/14 00:58:58;;;;;;;;;;;;;;;19.38;36.23;95329.63;5006911;28;20468;-73
2022/08/14 01:01:23;;;;;;;;;;;;;;;19.45;37.08;95322.22;5007787;28;20046;-72
2022/08/14 01:03:49;;;;;;;;;;;;;;;19.38;36.05;95316.94;5011917;28;20487;-72
2022/08/14 01:06:15;;;;;;;;;;;;;;;19.31;37.37;95322.50;4992240;28;19998;-72
2022/08/14 01:08:42;;;;;;;;;;;;;;;19.30;36.30;95310.06;5006445;28;20423;-72
2022/08/14 01:11:08;;;;;;;;;;;;;;;19.31;36.32;95314.41;5013635;28;20033;-72
2022/08/14 01:13:34;;;;;;;;;;;;;;;19.25;36.24;95304.56;5016690;28;20020;-72
2022/08/14 01:16:00;;;;;;;;;;;;;;;19.28;36.79;95304.09;5007757;28;20021;-71
2022/08/14 01:21:13;;;;;;;;;;;;;;;19.30;37.11;95293.88;5007983;28;20443;-72
2022/08/14 01:23:40;;;;;;;;;;;;;;;19.30;36.80;95304.69;5010017;28;19985;-72
2022/08/14 01:26:05;;;;;;;;;;;;;;;19.29;37.06;95297.66;5005894;28;20526;-72
2022/08/14 01:28:33;;;;;;;;;;;;;;;19.33;36.32;95298.81;5007998;28;20201;-72
2022/08/14 01:30:58;;;;;;;;;;;;;;;19.22;37.29;95291.53;5014231;28;19989;-72
2022/08/14 01:33:27;;;;;;;;;;;;;;;19.17;36.83;95294.16;5006515;28;20044;-72
2022/08/14 01:35:57;;;;;;;;;;;;;;;19.12;37.37;95285.94;5004276;28;20058;-72
2022/08/14 01:38:23;;;;;;;;;;;;;;;19.10;37.39;95282.69;5005757;28;20028;-71
2022/08/14 01:40:48;;;;;;;;;;;;;;;19.07;36.79;95282.09;5011601;28;19981;-71
2022/08/14 01:43:16;;;;;;;;;;;;;;;19.05;37.18;95272.63;5012654;28;20067;-71
2022/08/14 01:45:41;;;;;;;;;;;;;;;19.01;36.79;95280.38;5012585;28;20118;-71
2022/08/14 01:48:07;;;;;;;;;;;;;;;18.97;36.91;95273.00;5008786;28;20071;-71
2022/08/14 01:50:33;;;;;;;;;;;;;;;18.93;35.43;95269.94;5009001;28;20025;-71
2022/08/14 01:52:58;;;;;;;;;;;;;;;18.88;37.65;95275.25;5015209;28;19977;-71
2022/08/14 01:55:24;;;;;;;;;;;;;;;18.85;37.31;95270.34;5012939;28;20047;-71
2022/08/14 01:57:49;;;;;;;;;;;;;;;18.77;36.40;95263.47;5005992;28;20221;-71
2022/08/14 02:00:15;;;;;;;;;;;;;;;18.64;37.38;95257.28;5014200;28;19981;-72
2022/08/14 02:02:41;;;;;;;;;;;;;;;18.67;37.89;95242.50;5010553;28;20050;-73
2022/08/14 02:05:07;;;;;;;;;;;;;;;18.75;38.04;95242.13;5013563;28;19994;-73
2022/08/14 02:07:35;;;;;;;;;;;;;;;18.74;36.32;95236.97;5010001;28;19999;-73
2022/08/14 02:10:00;;;;;;;;;;;;;;;18.72;37.42;95233.69;5013371;28;20043;-72
2022/08/14 02:12:25;;;;;;;;;;;;;;;18.73;37.81;95225.34;5007390;28;20458;-71
2022/08/14 02:14:51;;;;;;;;;;;;;;;18.74;38.67;95212.69;5006872;28;19986;-71
2022/08/14 02:17:16;;;;;;;;;;;;;;;18.72;37.87;95212.09;5005358;28;20260;-72
2022/08/14 02:19:41;;;;;;;;;;;;;;;18.63;37.29;95209.00;5005937;28;19986;-72
2022/08/14 02:22:07;;;;;;;;;;;;;;;18.71;37.85;95205.91;5009450;28;19995;-71
2022/08/14 02:24:32;;;;;;;;;;;;;;;18.64;38.95;95205.25;5008772;28;19973;-72
2022/08/14 02:26:58;;;;;;;;;;;;;;;18.62;38.01;95196.56;5013640;28;19999;-71
2022/08/14 02:29:24;;;;;;;;;;;;;;;18.58;38.05;95188.16;5005380;28;20334;-71
2022/08/14 02:31:51;;;;;;;;;;;;;;;18.59;37.39;95187.06;5007859;28;20004;-71
2022/08/14 02:34:17;;;;;;;;;;;;;;;18.61;38.37;95184.16;5005090;28;19994;-71
2022/08/14 02:36:43;;;;;;;;;;;;;;;18.60;39.13;95182.50;5005022;28;19969;-71
2022/08/14 02:39:08;;;;;;;;;;;;;;;18.57;38.92;95178.41;5006027;28;20005;-71
2022/08/14 02:41:34;;;;;;;;;;;;;;;18.37;38.04;95168.03;4987494;28;19969;-72
2022/08/14 02:44:00;;;;;;;;;;;;;;;18.46;37.93;95163.09;5004915;28;20072;-72
2022/08/14 02:46:26;;;;;;;;;;;;;;;18.55;38.67;95162.47;5005142;28;20021;-72
2022/08/14 02:48:51;;;;;;;;;;;;;;;18.53;39.42;95161.88;5005726;28;20155;-72
2022/08/14 02:51:16;;;;;;;;;;;;;;;18.52;38.21;95162.94;5007677;28;20482;-73
2022/08/14 02:53:43;;;;;;;;;;;;;;;18.65;38.62;95163.75;5006380;28;20469;-73
2022/08/14 02:56:09;;;;;;;;;;;;;;;18.58;39.23;95165.75;5008351;28;20043;-72
2022/08/14 02:58:37;;;;;;;;;;;;;;;18.56;39.15;95172.19;5004897;28;20000;-72
2022/08/14 03:01:02;;;;;;;;;;;;;;;18.56;38.78;95166.78;5003994;28;19970;-71
2022/08/14 03:03:28;;;;;;;;;;;;;;;18.57;38.72;95170.31;5016550;28;20455;-71
2022/08/14 03:05:53;;;;;;;;;;;;;;;18.53;38.34;95172.66;5005346;28;19992;-72
2022/08/14 03:08:18;;;;;;;;;;;;;;;18.52;38.47;95176.41;5006999;28;19974;-72
2022/08/14 03:10:44;;;;;;;;;;;;;;;18.46;37.12;95180.06;5005595;28;20284;-71
2022/08/14 03:13:09;;;;;;;;;;;;;;;18.48;38.74;95174.44;4987449;28;19999;-71
2022/08/14 03:15:52;;;;;;;;;;;;;;;18.54;37.95;95174.31;5005228;28;19994;-72
2022/08/14 03:18:17;;;;;;;;;;;;;;;18.58;38.37;95168.44;5005495;28;20450;-71
2022/08/14 03:20:42;;;;;;;;;;;;;;;18.51;39.21;95172.09;5007737;28;20085;-71
2022/08/14 03:23:08;;;;;;;;;;;;;;;18.50;39.49;95175.84;5007162;28;20201;-71
2022/08/14 03:25:34;;;;;;;;;;;;;;;18.57;38.66;95173.00;5008440;28;20104;-71
2022/08/14 03:28:06;;;;;;;;;;;;;;;18.65;38.70;95179.91;5011476;28;20385;-71
2022/08/14 03:30:31;;;;;;;;;;;;;;;18.72;38.81;95177.88;5008643;28;20652;-71
2022/08/14 03:32:57;;;;;;;;;;;;;;;18.71;38.90;95180.81;5015722;28;20272;-71
2022/08/14 03:35:22;;;;;;;;;;;;;;;18.63;39.12;95179.34;5012325;28;20087;-71
2022/08/14 03:37:49;;;;;;;;;;;;;;;18.54;37.91;95185.09;5008006;28;19978;-72
2022/08/14 03:40:14;;;;;;;;;;;;;;;18.53;37.03;95185.34;5011712;28;20044;-73
2022/08/14 03:42:39;;;;;;;;;;;;;;;18.47;38.24;95184.41;5008049;28;20590;-72
2022/08/14 03:45:08;;;;;;;;;;;;;;;18.41;39.05;95185.34;5009260;28;20033;-71
2022/08/14 03:47:35;;;;;;;;;;;;;;;18.33;39.40;95189.25;5013138;28;19990;-72
2022/08/14 03:50:01;;;;;;;;;;;;;;;18.22;38.25;95182.81;5009825;28;20008;-71
2022/08/14 03:52:26;;;;;;;;;;;;;;;18.17;36.71;95177.34;5008818;28;19973;-72
2022/08/14 03:54:51;;;;;;;;;;;;;;;18.13;37.99;95178.88;5013504;28;20283;-72
2022/08/14 03:57:16;;;;;;;;;;;;;;;18.10;38.04;95172.09;5010347;28;19988;-72
2022/08/14 03:59:42;;;;;;;;;;;;;;;18.09;38.86;95173.16;5007778;28;20040;-71
2022/08/14 04:02:07;;;;;;;;;;;;;;;18.05;38.11;95178.19;5014779;28;19990;-71
2022/08/14 04:04:32;;;;;;;;;;;;;;;17.96;38.45;95179.59;5007583;28;20013;-71
2022/08/14 04:07:02;;;;;;;;;;;;;;;17.90;36.73;95164.38;5009850;28;20525;-71
2022/08/14 04:09:28;;;;;;;;;;;;;;;17.83;37.61;95159.09;5013887;28;20183;-71
2022/08/14 04:11:53;;;;;;;;;;;;;;;17.75;37.63;95157.56;4993789;28;20088;-71
2022/08/14 04:14:18;;;;;;;;;;;;;;;17.71;39.30;95160.97;5007010;28;19986;-71
2022/08/14 04:16:45;;;;;;;;;;;;;;;17.72;39.53;95168.00;5007546;28;19970;-71
2022/08/14 04:19:10;;;;;;;;;;;;;;;17.71;38.82;95161.78;5007077;28;19993;-71
2022/08/14 04:21:35;;;;;;;;;;;;;;;17.67;37.54;95149.84;5008054;28;20048;-71
2022/08/14 04:24:01;;;;;;;;;;;;;;;17.61;37.12;95145.44;5012054;28;19985;-71
2022/08/14 04:26:26;;;;;;;;;;;;;;;17.59;38.13;95142.13;5006401;28;20045;-71
2022/08/14 04:28:52;;;;;;;;;;;;;;;17.61;38.60;95148.91;5006835;28;20016;-71
2022/08/14 04:31:17;;;;;;;;;;;;;;;17.62;38.16;95145.19;5006740;28;20002;-71
2022/08/14 04:33:43;;;;;;;;;;;;;;;17.62;37.46;95147.88;4999640;28;19970;-71
2022/08/14 04:36:08;;;;;;;;;;;;;;;17.61;37.62;95146.22;4988704;28;20200;-71
2022/08/14 04:43:35;;;;;;;;;;;;;;;17.58;39.30;95144.03;5010098;28;20024;-71
2022/08/14 04:44:18;;;;;;;;;;;;;;;17.71;38.80;95140.25;5006072;28;20013;-71
2022/08/14 04:48:11;;;;;;;;;;;;;;;17.80;36.70;95138.84;5007979;28;19998;-71
2022/08/14 04:49:28;;;;;;;;;;;;;;;17.87;37.70;95135.22;5008070;28;19981;-71
2022/08/14 04:51:54;;;;;;;;;;;;;;;17.95;36.75;95132.16;4989917;28;20357;-71
2022/08/14 04:54:19;;;;;;;;;;;;;;;18.04;38.59;95135.31;5012993;28;20311;-71
2022/08/14 04:56:44;;;;;;;;;;;;;;;18.08;39.80;95125.69;5015787;28;20596;-71
2022/08/14 04:59:10;;;;;;;;;;;;;;;18.18;38.36;95133.16;5008541;28;20424;-71
2022/08/14 05:01:35;;;;;;;;;;;;;;;18.29;38.96;95129.63;5007975;28;20018;-71
2022/08/14 05:04:00;;;;;;;;;;;;;;;18.29;38.50;95128.81;5009936;28;20098;-71
2022/08/14 05:06:26;;;;;;;;;;;;;;;18.40;37.50;95136.06;5011790;28;20453;-71
2022/08/14 05:08:52;;;;;;;;;;;;;;;18.48;38.18;95137.53;5011334;28;20527;-71
2022/08/14 05:11:18;;;;;;;;;;;;;;;18.59;38.67;95137.75;5007797;28;20005;-71
2022/08/14 05:13:43;;;;;;;;;;;;;;;18.51;40.68;95141.63;5009424;28;20373;-71
2022/08/14 05:16:09;;;;;;;;;;;;;;;18.63;40.22;95147.81;5008981;28;20047;-70
2022/08/14 05:18:35;;;;;;;;;;;;;;;18.77;39.30;95145.63;5010046;28;20092;-71
2022/08/14 05:21:00;;;;;;;;;;;;;;;18.80;39.65;95144.34;4995446;28;20027;-71
2022/08/14 05:23:26;;;;;;;;;;;;;;;18.90;37.85;95135.63;5010534;28;20035;-71
2022/08/14 05:25:54;;;;;;;;;;;;;;;19.02;38.76;95130.13;5012985;28;19986;-71
2022/08/14 05:28:23;;;;;;;;;;;;;;;19.14;39.71;95127.38;5013928;28;20038;-71
2022/08/14 05:30:49;;;;;;;;;;;;;;;19.29;38.24;95124.94;5009158;28;19998;-71
2022/08/14 05:33:15;;;;;;;;;;;;;;;19.33;37.18;95126.09;5010450;28;20205;-71
2022/08/14 05:35:40;;;;;;;;;;;;;;;19.49;38.76;95128.19;5008902;28;19990;-70
2022/08/14 05:38:09;;;;;;;;;;;;;;;19.59;37.73;95139.94;5008866;28;20021;-71
2022/08/14 05:40:35;;;;;;;;;;;;;;;19.75;38.42;95134.78;4990770;28;20299;-71
2022/08/14 05:43:01;;;;;;;;;;;;;;;19.94;36.69;95134.47;5010451;28;20051;-71
2022/08/14 05:45:26;;;;;;;;;;;;;;;19.91;38.51;95134.97;5017069;28;20487;-71
2022/08/14 05:47:51;;;;;;;;;;;;;;;20.08;37.51;95133.09;5007793;28;20498;-71
2022/08/14 05:50:16;;;;;;;;;;;;;;;20.38;37.66;95133.69;5009130;28;20389;-70
2022/08/14 05:52:42;;;;;;;;;;;;;;;20.40;37.77;95128.03;5007321;28;20373;-71
2022/08/14 05:55:07;;;;;;;;;;;;;;;20.45;36.88;95133.50;5010846;28;20056;-71
2022/08/14 05:57:32;;;;;;;;;;;;;;;20.72;36.04;95124.63;5010682;28;19989;-70
2022/08/14 05:59:57;;;;;;;;;;;;;;;20.86;35.93;95128.53;5010550;28;19989;-71
2022/08/14 06:02:23;;;;;;;;;;;;;;;20.96;37.00;95127.00;5004391;28;19987;-70
2022/08/14 06:04:48;;;;;;;;;;;;;;;21.08;35.30;95127.63;4990755;28;20013;-71
2022/08/14 06:07:13;;;;;;;;;;;;;;;21.23;36.40;95126.97;5004886;28;20000;-70
2022/08/14 06:09:39;;;;;;;;;;;;;;;21.43;35.65;95120.09;5007723;28;20505;-71
2022/08/14 06:12:04;;;;;;;;;;;;;;;21.38;36.05;95107.34;5004682;28;20005;-70
2022/08/14 06:14:30;;;;;;;;;;;;;;;21.70;35.53;95115.66;5005920;28;20475;-71
2022/08/14 06:16:55;;;;;;;;;;;;;;;21.60;35.85;95113.69;5009389;28;19988;-71
2022/08/14 06:19:20;;;;;;;;;;;;;;;21.67;35.87;95111.56;5016368;28;19991;-71
2022/08/14 06:21:45;;;;;;;;;;;;;;;21.89;34.76;95103.28;5007494;28;20470;-71
2022/08/14 06:24:11;;;;;;;;;;;;;;;22.05;34.45;95108.81;5010262;28;20065;-71
2022/08/14 06:26:36;;;;;;;;;;;;;;;22.20;35.43;95104.53;5012720;28;20614;-71
2022/08/14 06:29:01;;;;;;;;;;;;;;;22.20;33.75;95104.53;5014171;28;19921;-71
2022/08/14 06:31:26;;;;;;;;;;;;;;;22.51;34.63;95100.00;5009572;28;20085;-71
2022/08/14 06:33:52;;;;;;;;;;;;;;;22.37;34.61;95090.78;5005360;28;19984;-70
2022/08/14 06:36:17;;;;;;;;;;;;;;;22.43;34.48;95094.31;5006643;28;20035;-71
2022/08/14 06:38:42;;;;;;;;;;;;;;;22.34;34.30;95091.28;5006887;28;20025;-71
2022/08/14 06:41:08;;;;;;;;;;;;;;;22.52;34.33;95087.28;5012856;28;19974;-71
2022/08/14 06:43:33;;;;;;;;;;;;;;;22.76;34.29;95092.22;5008562;28;20194;-70
2022/08/14 06:45:59;;;;;;;;;;;;;;;22.61;33.89;95098.44;5011358;28;19934;-71
2022/08/14 06:48:25;;;;;;;;;;;;;;;22.89;34.11;95105.28;5009450;28;19978;-70
2022/08/14 06:50:53;;;;;;;;;;;;;;;23.08;33.10;95103.91;5005841;28;20031;-71
2022/08/14 06:53:18;;;;;;;;;;;;;;;23.17;33.41;95100.41;5009004;28;20166;-70
2022/08/14 06:55:44;;;;;;;;;;;;;;;23.26;31.40;95091.72;5004572;28;20301;-72
2022/08/14 06:58:12;;;;;;;;;;;;;;;23.41;33.38;95086.28;5013076;28;19932;-72
2022/08/14 07:00:38;;;;;;;;;;;;;;;23.61;30.57;95091.91;4991903;28;19924;-72
2022/08/14 07:05:47;;;;;;;;;;;;;;;23.88;32.66;95086.19;5011822;28;20671;-72
2022/08/14 07:08:13;;;;;;;;;;;;;;;23.94;31.76;95085.06;5012484;28;20020;-72
2022/08/14 07:10:38;;;;;;;;;;;;;;;24.06;30.45;95081.22;5021372;28;20019;-72
2022/08/14 07:13:04;;;;;;;;;;;;;;;23.56;30.69;95073.75;5008728;28;19983;-72
2022/08/14 07:15:29;;;;;;;;;;;;;;;23.99;30.86;95081.53;5013550;28;20283;-71
2022/08/14 07:17:54;;;;;;;;;;;;;;;24.23;31.33;95082.78;5018246;28;19917;-71
2022/08/14 07:20:20;;;;;;;;;;;;;;;24.33;28.41;95077.31;5013550;28;19929;-71
2022/08/14 07:22:45;;;;;;;;;;;;;;;24.37;31.45;95085.75;5015645;28;19918;-71
2022/08/14 07:25:11;;;;;;;;;;;;;;;24.23;29.68;95078.16;5008877;28;20011;-70
2022/08/14 07:27:37;;;;;;;;;;;;;;;24.34;30.60;95078.13;5016508;28;19918;-71
2022/08/14 07:30:03;;;;;;;;;;;;;;;24.28;30.69;95069.97;5008621;28;20413;-71
2022/08/14 07:32:28;;;;;;;;;;;;;;;24.36;29.57;95057.72;5009374;28;19921;-71
2022/08/14 07:34:54;;;;;;;;;;;;;;;24.44;30.73;95059.03;5009737;28;19921;-70
2022/08/14 07:37:19;;;;;;;;;;;;;;;24.52;28.92;95058.44;5013840;28;20012;-71
2022/08/14 07:39:45;;;;;;;;;;;;;;;24.90;30.05;95052.47;5009466;28;20429;-71
2022/08/14 07:42:10;;;;;;;;;;;;;;;24.94;26.55;95053.53;5009077;28;20345;-71
2022/08/14 07:44:35;;;;;;;;;;;;;;;25.06;28.51;95046.91;5011940;28;20239;-70
2022/08/14 07:47:01;;;;;;;;;;;;;;;25.34;29.06;95044.47;5009089;28;19925;-70
2022/08/14 07:49:26;;;;;;;;;;;;;;;25.65;29.14;95041.44;5012755;28;20373;-70
2022/08/14 07:51:51;;;;;;;;;;;;;;;25.70;29.00;95044.09;4992232;28;19949;-70
2022/08/14 07:54:17;;;;;;;;;;;;;;;25.85;28.78;95036.84;5015657;28;20205;-70
2022/08/14 07:56:42;;;;;;;;;;;;;;;25.88;28.91;95047.19;5010741;28;20331;-70
2022/08/14 07:59:07;;;;;;;;;;;;;;;25.81;28.62;95052.16;5008900;28;19990;-70
2022/08/14 08:01:33;;;;;;;;;;;;;;;24.96;28.61;95042.38;4991291;28;20439;-71
2022/08/14 08:03:58;;;;;;;;;;;;;;;25.34;28.81;95047.19;5012005;28;20023;-70
2022/08/14 08:06:24;;;;;;;;;;;;;;;25.77;27.26;95041.06;5009088;28;20042;-70
2022/08/14 08:08:49;;;;;;;;;;;;;;;25.49;27.17;95048.16;5012115;28;19952;-71
2022/08/14 08:11:15;;;;;;;;;;;;;;;26.13;28.00;95047.97;4991134;28;19954;-70
2022/08/14 08:13:41;;;;;;;;;;;;;;;26.16;27.09;95055.59;4994323;28;19942;-71
2022/08/14 08:16:07;;;;;;;;;;;;;;;26.20;28.01;95051.16;5011244;28;20026;-71
2022/08/14 08:18:32;;;;;;;;;;;;;;;26.59;27.90;95056.66;5012790;28;19983;-70
2022/08/14 08:20:58;;;;;;;;;;;;;;;26.90;26.60;95055.38;5008199;28;19921;-71
2022/08/14 08:23:25;;;;;;;;;;;;;;;27.10;27.43;95054.25;5011024;28;19921;-71
2022/08/14 08:25:50;;;;;;;;;;;;;;;26.93;25.82;95055.59;5013195;28;19979;-71
2022/08/14 08:28:17;;;;;;;;;;;;;;;26.60;27.03;95053.66;5007721;28;19917;-71
2022/08/14 08:30:52;;;;;;;;;;;;;;;26.80;25.83;95050.88;5007308;28;20050;-70
2022/08/14 08:33:18;;;;;;;;;;;;;;;26.77;27.40;95067.84;5013102;28;19928;-71
2022/08/14 08:35:43;;;;;;;;;;;;;;;27.19;26.11;95055.19;4989204;28;19921;-71
2022/08/14 08:38:09;;;;;;;;;;;;;;;27.20;25.91;95054.09;5017557;28;20432;-71
2022/08/14 08:40:35;;;;;;;;;;;;;;;26.98;26.60;95071.06;5009930;28;20251;-70
2022/08/14 08:43:01;;;;;;;;;;;;;;;27.38;26.22;95071.53;5006706;28;19928;-71
2022/08/14 08:45:26;;;;;;;;;;;;;;;27.55;25.89;95064.66;5010951;28;19921;-70
2022/08/14 08:47:52;;;;;;;;;;;;;;;27.92;25.58;95072.19;5012766;28;19968;-71
2022/08/14 08:50:19;;;;;;;;;;;;;;;28.08;25.31;95067.25;5019626;28;20020;-71
2022/08/14 08:52:48;;;;;;;;;;;;;;;28.00;23.57;95064.09;5013345;28;20162;-71
2022/08/14 08:55:13;;;;;;;;;;;;;;;28.07;25.51;95062.88;5010648;28;19977;-71
2022/08/14 08:57:39;;;;;;;;;;;;;;;28.29;25.18;95056.69;5006299;28;20400;-71
2022/08/14 09:00:14;;;;;;;;;;;;;;;27.11;26.28;95053.97;5006738;28;19917;-71
2022/08/14 09:02:51;;;;;;;;;;;;;;;27.67;25.52;95047.00;5015730;28;20425;-71
2022/08/14 09:05:17;;;;;;;;;;;;;;;27.51;25.09;95041.78;5005055;28;19971;-72
2022/08/14 09:07:42;;;;;;;;;;;;;;;27.99;24.25;95045.25;4988353;28;19949;-72
2022/08/14 09:10:07;;;;;;;;;;;;;;;27.90;24.47;95047.88;5007638;28;19924;-71
2022/08/14 09:12:34;;;;;;;;;;;;;;;27.83;24.69;95050.25;5005658;28;20135;-71
2022/08/14 09:15:05;;;;;;;;;;;;;;;28.18;24.31;95053.38;5006114;28;19933;-71
2022/08/14 09:17:31;;;;;;;;;;;;;;;28.69;23.77;95058.03;5007302;28;19968;-72
2022/08/14 09:19:56;;;;;;;;;;;;;;;28.67;23.60;95063.81;5006951;28;19957;-71
2022/08/14 09:22:22;;;;;;;;;;;;;;;29.04;23.17;95045.41;5006618;28;19925;-71
2022/08/14 09:24:48;;;;;;;;;;;;;;;28.98;22.58;95046.66;4989774;28;19953;-71
2022/08/14 09:27:13;;;;;;;;;;;;;;;29.43;23.01;95040.31;5007332;28;20349;-71
2022/08/14 09:29:38;;;;;;;;;;;;;;;29.15;22.90;95045.13;5007821;28;20388;-71
2022/08/14 09:32:03;;;;;;;;;;;;;;;29.01;23.40;95051.50;5005967;28;20457;-72
2022/08/14 09:34:47;;;;;;;;;;;;;;;28.74;23.09;95036.81;5011065;28;19928;-72
2022/08/14 09:37:25;;;;;;;;;;;;;;;29.16;23.57;95031.13;4991750;28;20388;-71
2022/08/14 09:40:03;;;;;;;;;;;;;;;29.20;22.02;95014.09;5012242;28;20023;-71
2022/08/14 09:42:33;;;;;;;;;;;;;;;29.41;22.75;95015.19;5005705;28;20293;-71
2022/08/14 09:45:02;;;;;;;;;;;;;;;29.20;22.84;95006.69;5007530;28;19964;-71
2022/08/14 09:47:43;;;;;;;;;;;;;;;29.41;21.56;95014.38;5013588;28;19925;-71
2022/08/14 09:50:28;;;;;;;;;;;;;;;29.51;21.96;95003.13;5010549;28;20473;-71
2022/08/14 09:52:57;;;;;;;;;;;;;;;29.60;21.97;95005.09;5005994;28;19933;-71
2022/08/14 09:55:23;;;;;;;;;;;;;;;29.71;22.32;95014.69;5007155;28;20390;-71
2022/08/14 09:57:48;;;;;;;;;;;;;;;29.66;21.43;95015.59;5007434;28;20051;-71
2022/08/14 10:00:15;;;;;;;;;;;;;;;29.70;21.27;95015.78;5010741;28;19920;-71
2022/08/14 10:02:49;;;;;;;;;;;;;;;29.72;20.72;95019.03;5009471;28;20409;-71
2022/08/14 10:05:15;;;;;;;;;;;;;;;29.39;20.68;95006.47;5015314;28;19977;-71
2022/08/14 10:07:50;;;;;;;;;;;;;;;29.44;21.49;95000.03;5013592;28;20416;-71
2022/08/14 10:10:32;;;;;;;;;;;;;;;29.70;21.32;95013.03;5008558;28;20012;-71
2022/08/14 10:12:57;;;;;;;;;;;;;;;29.89;21.21;95006.50;5008191;28;19917;-71
2022/08/14 10:15:25;;;;;;;;;;;;;;;30.30;21.60;95004.47;5007880;28;19917;-70
2022/08/14 10:18:01;;;;;;;;;;;;;;;29.55;21.10;94997.81;5010235;28;20508;-72
2022/08/14 10:20:33;;;;;;;;;;;;;;;30.38;20.45;94995.44;5008384;28;20335;-71
2022/08/14 10:23:07;;;;;;;;;;;;;;;30.78;20.62;94996.41;5011259;28;19939;-71
2022/08/14 10:25:38;;;;;;;;;;;;;;;31.09;19.89;94990.72;5008838;28;19917;-71
2022/08/14 10:28:03;;;;;;;;;;;;;;;30.75;20.21;94986.91;5008013;28;19922;-72
2022/08/14 10:30:33;;;;;;;;;;;;;;;30.95;19.81;94998.34;5009697;28;19926;-71
2022/08/14 10:32:59;;;;;;;;;;;;;;;31.04;19.68;94993.66;5008484;28;19922;-71
2022/08/14 10:35:24;;;;;;;;;;;;;;;31.29;19.36;94982.09;5012269;28;19920;-72
2022/08/14 10:37:50;;;;;;;;;;;;;;;31.39;19.47;94973.50;5010311;28;19972;-72
2022/08/14 10:40:25;;;;;;;;;;;;;;;31.52;19.30;94982.66;5004482;28;20322;-72
2022/08/14 10:42:51;;;;;;;;;;;;;;;31.58;19.16;94973.06;5009406;28;20173;-71
2022/08/14 10:45:20;;;;;;;;;;;;;;;31.75;18.93;94974.16;5009249;28;19921;-71
2022/08/14 10:47:46;;;;;;;;;;;;;;;31.77;18.75;94977.38;5008217;28;19929;-71
2022/08/14 10:50:13;;;;;;;;;;;;;;;31.96;19.04;94973.38;5006194;28;19917;-71
2022/08/14 10:52:38;;;;;;;;;;;;;;;32.12;18.15;94968.16;5006210;28;19913;-71
2022/08/14 10:55:06;;;;;;;;;;;;;;;32.50;18.53;94977.41;4987701;28;19949;-71
2022/08/14 10:57:34;;;;;;;;;;;;;;;32.73;17.99;94974.31;5003758;28;19921;-71
2022/08/14 11:00:00;;;;;;;;;;;;;;;32.76;17.86;94968.09;5004395;28;20665;-71
2022/08/14 11:02:28;;;;;;;;;;;;;;;32.31;18.60;94962.16;5003730;28;19922;-71
2022/08/14 11:05:07;;;;;;;;;;;;;;;32.47;18.13;94956.03;5007479;28;19948;-71
2022/08/14 11:07:33;;;;;;;;;;;;;;;32.22;18.21;94962.22;5014506;28;20386;-71
2022/08/14 11:09:59;;;;;;;;;;;;;;;32.52;18.22;94958.56;5007929;28;20170;-72
2022/08/14 11:12:25;;;;;;;;;;;;;;;32.85;18.24;94966.06;5008790;28;19929;-71
2022/08/14 11:14:51;;;;;;;;;;;;;;;33.00;17.78;94969.38;5005607;28;19922;-71
2022/08/14 11:17:16;;;;;;;;;;;;;;;32.91;17.20;94971.38;5015149;28;19969;-71
2022/08/14 11:19:41;;;;;;;;;;;;;;;33.19;17.16;94965.25;5008648;28;20003;-69
2022/08/14 11:22:07;;;;;;;;;;;;;;;32.98;16.85;94969.72;5010523;28;20311;-69
2022/08/14 11:24:32;;;;;;;;;;;;;;;33.14;16.25;94963.53;4993532;28;19921;-69
2022/08/14 11:26:58;;;;;;;;;;;;;;;33.24;16.77;94965.03;4985198;28;19925;-69
2022/08/14 11:29:23;;;;;;;;;;;;;;;33.36;16.91;94956.78;5014888;28;20395;-69
2022/08/14 11:31:48;;;;;;;;;;;;;;;33.37;17.42;94958.38;5005089;28;20035;-69
2022/08/14 11:34:14;;;;;;;;;;;;;;;33.44;16.27;94952.31;5005388;28;19956;-69
2022/08/14 11:36:41;;;;;;;;;;;;;;;33.98;16.05;94953.22;5006834;28;19924;-69
2022/08/14 11:39:06;;;;;;;;;;;;;;;33.84;16.52;94950.81;5007513;28;19963;-69
2022/08/14 11:41:33;;;;;;;;;;;;;;;34.28;15.79;94958.47;5005789;28;19953;-69
2022/08/14 11:43:58;;;;;;;;;;;;;;;32.85;16.70;94941.28;4990154;28;19963;-69
2022/08/14 11:46:24;;;;;;;;;;;;;;;33.13;16.97;94937.91;5003903;28;19933;-69
2022/08/14 11:48:50;;;;;;;;;;;;;;;33.20;16.96;94931.81;5010664;28;20431;-68
2022/08/14 11:51:19;;;;;;;;;;;;;;;33.62;16.47;94933.59;5006509;28;19921;-69
2022/08/14 11:53:49;;;;;;;;;;;;;;;32.92;17.11;94937.16;5008305;28;19995;-68
2022/08/14 11:56:14;;;;;;;;;;;;;;;33.35;17.01;94927.59;5014394;28;19921;-68
2022/08/14 11:58:39;;;;;;;;;;;;;;;33.56;17.26;94918.44;4998079;28;19991;-68
2022/08/14 12:01:05;;;;;;;;;;;;;;;33.45;17.21;94909.00;5012285;28;19956;-69
2022/08/14 12:03:34;;;;;;;;;;;;;;;33.38;17.47;94904.03;5007755;28;19983;-68
2022/08/14 12:06:04;;;;;;;;;;;;;;;33.82;16.83;94895.19;5011409;28;19985;-70
2022/08/14 12:08:32;;;;;;;;;;;;;;;34.03;16.57;94900.53;5008208;28;20615;-70
2022/08/14 12:10:57;;;;;;;;;;;;;;;33.39;16.71;94900.13;5021481;28;20683;-70
2022/08/14 12:13:22;;;;;;;;;;;;;;;33.92;16.25;94888.41;5017003;28;20308;-70
2022/08/14 12:15:55;;;;;;;;;;;;;;;34.03;16.23;94880.44;4988822;28;19917;-71
2022/08/14 12:18:33;;;;;;;;;;;;;;;34.66;15.69;94883.72;5012271;28;19924;-70
2022/08/14 12:21:19;;;;;;;;;;;;;;;35.05;15.30;94895.06;5019265;28;19925;-70
2022/08/14 12:23:45;;;;;;;;;;;;;;;34.52;15.27;94886.91;5008121;28;19918;-70
2022/08/14 12:26:16;;;;;;;;;;;;;;;34.89;14.99;94886.75;4988278;28;20314;-70
2022/08/14 12:28:41;;;;;;;;;;;;;;;35.02;14.77;94881.13;5006418;28;19917;-70
2022/08/14 12:31:18;;;;;;;;;;;;;;;35.26;14.71;94879.34;5012960;28;20334;-70
2022/08/14 12:33:54;;;;;;;;;;;;;;;35.41;14.58;94873.00;5022196;28;20461;-71
2022/08/14 12:36:22;;;;;;;;;;;;;;;35.68;14.33;94872.44;5006363;28;19917;-70
2022/08/14 12:38:49;;;;;;;;;;;;;;;35.86;14.13;94863.72;5008115;28;19932;-70
2022/08/14 12:41:19;;;;;;;;;;;;;;;35.78;14.93;94871.06;5010796;28;20466;-70
2022/08/14 12:43:52;;;;;;;;;;;;;;;35.92;14.17;94865.06;5007288;28;19969;-70
2022/08/14 12:46:30;;;;;;;;;;;;;;;36.04;14.09;94866.88;4993332;28;19930;-71
2022/08/14 12:48:57;;;;;;;;;;;;;;;36.37;13.50;94862.00;5014938;28;19980;-71
2022/08/14 12:51:24;;;;;;;;;;;;;;;35.57;14.47;94855.56;5009175;28;19934;-70
2022/08/14 12:53:50;;;;;;;;;;;;;;;35.47;13.99;94847.84;5011712;28;19944;-70